sensor_id;sensor_type;location;lat;lon;timestamp;pressure;altitude;pressure_sealevel;temperature;humidity
18813;BME280;9534;51.140;6.296;2022-09-09T00:02:18;99813.53;;;14.17;100.00
18813;BME280;9534;51.140;6.296;2022-09-09T00:06:24;99809.41;;;14.20;100.00
18813;BME280;9534;51.140;6.296;2022-09-09T00:10:37;99811.94;;;14.21;100.00
18813;BME280;9534;51.140;6.296;2022-09-09T00:14:48;99802.25;;;14.19;100.00
18813;BME280;9534;51.140;6.296;2022-09-09T00:19:00;99804.09;;;14.13;100.00
18813;BME280;9534;51.140;6.296;2022-09-09T00:23:12;99801.78;;;14.05;100.00
18813;BME280;9534;51.140;6.296;2022-09-09T00:27:25;99793.66;;;13.94;100.00
18813;BME280;9534;51.140;6.296;2022-09-09T00:31:32;99790.63;;;13.95;100.00
18813;BME280;9534;51.140;6.296;2022-09-09T00:35:37;99786.28;;;13.99;100.00
18813;BME280;9534;51.140;6.296;2022-09-09T00:39:44;99786.94;;;14.06;100.00
18813;BME280;9534;51.140;6.296;2022-09-09T00:43:56;99778.44;;;14.08;100.00
18813;BME280;9534;51.140;6.296;2022-09-09T00:48:05;99780.94;;;14.09;100.00
18813;BME280;9534;51.140;6.296;2022-09-09T00:52:22;99782.44;;;14.00;100.00
18813;BME280;9534;51.140;6.296;2022-09-09T00:56:29;99786.28;;;13.99;100.00
18813;BME280;9534;51.140;6.296;2022-09-09T01:00:49;99776.44;;;14.03;100.00
18813;BME280;9534;51.140;6.296;2022-09-09T01:04:53;99773.63;;;13.98;100.00
18813;BME280;9534;51.140;6.296;2022-09-09T01:09:12;99776.78;;;13.90;100.00
18813;BME280;9534;51.140;6.296;2022-09-09T01:13:23;99772.38;;;13.89;100.00
18813;BME280;9534;51.140;6.296;2022-09-09T01:17:31;99775.31;;;13.83;100.00
18813;BME280;9534;51.140;6.296;2022-09-09T01:21:51;99778.50;;;13.75;100.00
18813;BME280;9534;51.140;6.296;2022-09-09T01:26:12;99769.47;;;13.79;100.00
18813;BME280;9534;51.140;6.296;2022-09-09T01:30:19;99768.75;;;13.67;100.00
18813;BME280;9534;51.140;6.296;2022-09-09T01:34:24;99773.31;;;13.78;100.00
18813;BME280;9534;51.140;6.296;2022-09-09T01:38:30;99772.72;;;13.76;100.00
18813;BME280;9534;51.140;6.296;2022-09-09T01:42:36;99780.47;;;13.79;100.00
18813;BME280;9534;51.140;6.296;2022-09-09T01:46:39;99775.47;;;13.76;100.00
18813;BME280;9534;51.140;6.296;2022-09-09T01:50:49;99773.16;;;13.85;100.00
18813;BME280;9534;51.140;6.296;2022-09-09T01:54:53;99773.47;;;13.88;100.00
18813;BME280;9534;51.140;6.296;2022-09-09T01:59:15;99772.38;;;13.89;100.00
18813;BME280;9534;51.140;6.296;2022-09-09T02:03:28;99775.72;;;13.91;100.00
18813;BME280;9534;51.140;6.296;2022-09-09T02:07:47;99770.28;;;13.96;100.00
18813;BME280;9534;51.140;6.296;2022-09-09T02:12:08;99773.75;;;14.08;100.00
18813;BME280;9534;51.140;6.296;2022-09-09T02:16:29;99755.56;;;14.24;100.00
18813;BME280;9534;51.140;6.296;2022-09-09T02:20:35;99761.41;;;14.27;100.00
18813;BME280;9534;51.140;6.296;2022-09-09T02:24:40;99759.88;;;14.36;100.00
18813;BME280;9534;51.140;6.296;2022-09-09T02:28:57;99761.09;;;14.45;100.00
18813;BME280;9534;51.140;6.296;2022-09-09T02:33:04;99748.06;;;14.62;100.00
18813;BME280;9534;51.140;6.296;2022-09-09T02:37:20;99748.34;;;14.61;100.00
18813;BME280;9534;51.140;6.296;2022-09-09T02:41:31;99746.00;;;14.74;100.00
18813;BME280;9534;51.140;6.296;2022-09-09T02:45:40;99738.84;;;14.73;100.00
18813;BME280;9534;51.140;6.296;2022-09-09T02:49:59;99736.66;;;14.75;100.00
18813;BME280;9534;51.140;6.296;2022-09-09T02:54:10;99740.50;;;14.74;100.00
18813;BME280;9534;51.140;6.296;2022-09-09T02:58:19;99731.09;;;14.70;100.00
18813;BME280;9534;51.140;6.296;2022-09-09T03:02:36;99735.22;;;14.68;100.00
18813;BME280;9534;51.140;6.296;2022-09-09T03:06:43;99736.22;;;14.62;100.00
18813;BME280;9534;51.140;6.296;2022-09-09T03:10:53;99728.84;;;14.67;100.00
18813;BME280;9534;51.140;6.296;2022-09-09T03:15:00;99721.50;;;14.73;100.00
18813;BME280;9534;51.140;6.296;2022-09-09T03:19:03;99725.41;;;14.77;100.00
18813;BME280;9534;51.140;6.296;2022-09-09T03:23:08;99729.03;;;14.82;100.00
18813;BME280;9534;51.140;6.296;2022-09-09T03:27:17;99741.56;;;14.94;100.00
18813;BME280;9534;51.140;6.296;2022-09-09T03:31:21;99736.47;;;15.08;100.00
18813;BME280;9534;51.140;6.296;2022-09-09T03:35:25;99729.81;;;15.04;100.00
18813;BME280;9534;51.140;6.296;2022-09-09T03:39:30;99738.63;;;15.06;100.00
18813;BME280;9534;51.140;6.296;2022-09-09T03:43:34;99741.44;;;15.11;100.00
18813;BME280;9534;51.140;6.296;2022-09-09T03:47:37;99732.53;;;15.30;100.00
18813;BME280;9534;51.140;6.296;2022-09-09T03:51:41;99725.63;;;15.28;100.00
18813;BME280;9534;51.140;6.296;2022-09-09T03:55:50;99728.06;;;15.24;100.00
18813;BME280;9534;51.140;6.296;2022-09-09T03:59:54;99730.28;;;15.27;100.00
18813;BME280;9534;51.140;6.296;2022-09-09T04:03:57;99730.16;;;15.39;100.00
18813;BME280;9534;51.140;6.296;2022-09-09T04:08:01;99724.47;;;15.50;100.00
18813;BME280;9534;51.140;6.296;2022-09-09T04:12:06;99720.09;;;15.54;100.00
18813;BME280;9534;51.140;6.296;2022-09-09T04:16:11;99723.44;;;15.61;100.00
18813;BME280;9534;51.140;6.296;2022-09-09T04:20:16;99728.06;;;15.56;100.00
18813;BME280;9534;51.140;6.296;2022-09-09T04:24:19;99723.69;;;15.60;100.00
18813;BME280;9534;51.140;6.296;2022-09-09T04:28:27;99722.38;;;15.67;100.00
18813;BME280;9534;51.140;6.296;2022-09-09T04:32:32;99718.53;;;15.68;100.00
18813;BME280;9534;51.140;6.296;2022-09-09T04:36:35;99722.06;;;15.64;100.00
18813;BME280;9534;51.140;6.296;2022-09-09T04:40:42;99723.81;;;15.75;100.00
18813;BME280;9534;51.140;6.296;2022-09-09T04:44:46;99717.69;;;15.68;100.00
18813;BME280;9534;51.140;6.296;2022-09-09T04:48:50;99721.00;;;15.70;100.00
18813;BME280;9534;51.140;6.296;2022-09-09T04:52:56;99714.72;;;15.74;100.00
18813;BME280;9534;51.140;6.296;2022-09-09T04:56:59;99717.44;;;15.69;100.00
18813;BME280;9534;51.140;6.296;2022-09-09T05:01:06;99723.78;;;15.70;100.00
18813;BME280;9534;51.140;6.296;2022-09-09T05:05:11;99722.19;;;15.79;100.00
18813;BME280;9534;51.140;6.296;2022-09-09T05:09:15;99719.34;;;15.69;100.00
18813;BME280;9534;51.140;6.296;2022-09-09T05:13:19;99721.28;;;15.68;100.00
18813;BME280;9534;51.140;6.296;2022-09-09T05:17:24;99723.72;;;15.65;100.00
18813;BME280;9534;51.140;6.296;2022-09-09T05:21:27;99726.53;;;15.70;100.00
18813;BME280;9534;51.140;6.296;2022-09-09T05:25:32;99720.56;;;15.83;100.00
18813;BME280;9534;51.140;6.296;2022-09-09T05:29:35;99715.53;;;15.75;100.00
18813;BME280;9534;51.140;6.296;2022-09-09T05:33:43;99721.38;;;15.78;100.00
18813;BME280;9534;51.140;6.296;2022-09-09T05:37:48;99722.75;;;15.81;100.00
18813;BME280;9534;51.140;6.296;2022-09-09T05:41:51;99728.28;;;15.86;100.00
18813;BME280;9534;51.140;6.296;2022-09-09T05:46:02;99733.84;;;15.91;100.00
18813;BME280;9534;51.140;6.296;2022-09-09T05:50:08;99732.16;;;15.85;100.00
18813;BME280;9534;51.140;6.296;2022-09-09T05:54:11;99728.81;;;15.83;100.00
18813;BME280;9534;51.140;6.296;2022-09-09T05:58:21;99735.47;;;15.87;100.00
18813;BME280;9534;51.140;6.296;2022-09-09T06:02:26;99736.03;;;15.89;100.00
18813;BME280;9534;51.140;6.296;2022-09-09T06:06:32;99744.97;;;16.01;100.00
18813;BME280;9534;51.140;6.296;2022-09-09T06:10:42;99744.91;;;15.96;100.00
18813;BME280;9534;51.140;6.296;2022-09-09T06:14:45;99738.28;;;15.92;100.00
18813;BME280;9534;51.140;6.296;2022-09-09T06:18:49;99748.25;;;15.98;100.00
18813;BME280;9534;51.140;6.296;2022-09-09T06:22:54;99742.78;;;16.08;100.00
18813;BME280;9534;51.140;6.296;2022-09-09T06:26:57;99740.06;;;16.12;100.00
18813;BME280;9534;51.140;6.296;2022-09-09T06:31:07;99741.41;;;16.10;100.00
18813;BME280;9534;51.140;6.296;2022-09-09T06:35:10;99743.91;;;16.11;100.00
18813;BME280;9534;51.140;6.296;2022-09-09T06:39:15;99738.38;;;16.07;100.00
18813;BME280;9534;51.140;6.296;2022-09-09T06:43:20;99745.59;;;16.12;100.00
18813;BME280;9534;51.140;6.296;2022-09-09T06:47:25;99738.94;;;16.08;100.00
18813;BME280;9534;51.140;6.296;2022-09-09T06:51:31;99735.06;;;16.09;100.00
18813;BME280;9534;51.140;6.296;2022-09-09T06:55:39;99740.66;;;16.19;100.00
18813;BME280;9534;51.140;6.296;2022-09-09T06:59:44;99751.09;;;16.59;100.00
18813;BME280;9534;51.140;6.296;2022-09-09T07:03:48;99768.63;;;17.04;100.00
18813;BME280;9534;51.140;6.296;2022-09-09T07:07:51;99763.66;;;17.16;100.00
18813;BME280;9534;51.140;6.296;2022-09-09T07:11:56;99770.88;;;17.32;100.00
18813;BME280;9534;51.140;6.296;2022-09-09T07:16:05;99781.94;;;17.27;100.00
18813;BME280;9534;51.140;6.296;2022-09-09T07:20:09;99786.38;;;17.38;100.00
18813;BME280;9534;51.140;6.296;2022-09-09T07:24:13;99781.91;;;17.22;100.00
18813;BME280;9534;51.140;6.296;2022-09-09T07:28:19;99786.09;;;17.20;100.00
18813;BME280;9534;51.140;6.296;2022-09-09T07:32:23;99787.44;;;17.17;100.00
18813;BME280;9534;51.140;6.296;2022-09-09T07:36:28;99786.63;;;17.22;100.00
18813;BME280;9534;51.140;6.296;2022-09-09T07:40:35;99794.69;;;17.38;100.00
18813;BME280;9534;51.140;6.296;2022-09-09T07:44:40;99797.47;;;17.43;100.00
18813;BME280;9534;51.140;6.296;2022-09-09T07:48:47;99793.09;;;17.77;100.00
18813;BME280;9534;51.140;6.296;2022-09-09T07:52:54;99793.34;;;18.00;100.00
18813;BME280;9534;51.140;6.296;2022-09-09T07:56:59;99794.19;;;17.81;100.00
18813;BME280;9534;51.140;6.296;2022-09-09T08:01:10;99795.78;;;18.32;100.00
18813;BME280;9534;51.140;6.296;2022-09-09T08:05:14;99800.22;;;19.11;100.00
18813;BME280;9534;51.140;6.296;2022-09-09T08:09:21;99805.34;;;19.37;100.00
18813;BME280;9534;51.140;6.296;2022-09-09T08:13:26;99804.22;;;19.77;100.00
18813;BME280;9534;51.140;6.296;2022-09-09T08:17:31;99811.56;;;19.63;100.00
18813;BME280;9534;51.140;6.296;2022-09-09T08:21:39;99810.03;;;18.83;100.00
18813;BME280;9534;51.140;6.296;2022-09-09T08:25:44;99815.38;;;19.23;100.00
18813;BME280;9534;51.140;6.296;2022-09-09T08:29:47;99821.22;;;18.63;100.00
18813;BME280;9534;51.140;6.296;2022-09-09T08:33:53;99823.72;;;19.23;100.00
18813;BME280;9534;51.140;6.296;2022-09-09T08:37:57;99831.44;;;19.36;100.00
18813;BME280;9534;51.140;6.296;2022-09-09T08:42:22;99836.50;;;19.24;100.00
18813;BME280;9534;51.140;6.296;2022-09-09T08:46:36;99829.44;;;19.80;100.00
18813;BME280;9534;51.140;6.296;2022-09-09T08:50:44;99824.22;;;19.35;100.00
18813;BME280;9534;51.140;6.296;2022-09-09T08:54:52;99827.22;;;18.80;100.00
18813;BME280;9534;51.140;6.296;2022-09-09T08:59:00;99828.66;;;18.68;100.00
18813;BME280;9534;51.140;6.296;2022-09-09T09:03:16;99842.81;;;18.66;100.00
18813;BME280;9534;51.140;6.296;2022-09-09T09:07:35;99846.72;;;18.65;100.00
18813;BME280;9534;51.140;6.296;2022-09-09T09:11:45;99850.94;;;19.11;100.00
18813;BME280;9534;51.140;6.296;2022-09-09T09:15:55;99824.53;;;20.39;100.00
18813;BME280;9534;51.140;6.296;2022-09-09T09:20:03;99826.25;;;20.01;100.00
18813;BME280;9534;51.140;6.296;2022-09-09T09:24:15;99824.81;;;19.71;100.00
18813;BME280;9534;51.140;6.296;2022-09-09T09:28:24;99832.81;;;19.77;100.00
18813;BME280;9534;51.140;6.296;2022-09-09T09:32:34;99824.28;;;19.20;100.00
18813;BME280;9534;51.140;6.296;2022-09-09T09:36:42;99827.09;;;19.15;100.00
18813;BME280;9534;51.140;6.296;2022-09-09T09:40:50;99827.56;;;19.37;100.00
18813;BME280;9534;51.140;6.296;2022-09-09T09:44:56;99829.25;;;19.28;100.00
18813;BME280;9534;51.140;6.296;2022-09-09T09:49:03;99832.13;;;19.03;100.00
18813;BME280;9534;51.140;6.296;2022-09-09T09:53:20;99850.22;;;18.91;100.00
18813;BME280;9534;51.140;6.296;2022-09-09T09:57:28;99847.69;;;18.99;100.00
18813;BME280;9534;51.140;6.296;2022-09-09T10:01:35;99840.31;;;19.38;100.00
18813;BME280;9534;51.140;6.296;2022-09-09T10:05:45;99830.28;;;19.42;100.00
18813;BME280;9534;51.140;6.296;2022-09-09T10:09:53;99835.72;;;19.62;100.00
18813;BME280;9534;51.140;6.296;2022-09-09T10:14:08;99845.50;;;19.88;100.00
18813;BME280;9534;51.140;6.296;2022-09-09T10:18:36;99833.16;;;19.27;100.00
18813;BME280;9534;51.140;6.296;2022-09-09T10:22:46;99839.84;;;19.11;100.00
18813;BME280;9534;51.140;6.296;2022-09-09T10:26:55;99841.44;;;19.32;100.00
18813;BME280;9534;51.140;6.296;2022-09-09T10:31:14;99834.25;;;19.21;100.00
18813;BME280;9534;51.140;6.296;2022-09-09T10:35:27;99827.34;;;19.24;100.00
18813;BME280;9534;51.140;6.296;2022-09-09T10:39:36;99830.38;;;19.27;100.00
18813;BME280;9534;51.140;6.296;2022-09-09T10:44:17;99831.38;;;19.46;100.00
18813;BME280;9534;51.140;6.296;2022-09-09T10:48:31;99834.81;;;19.28;100.00
18813;BME280;9534;51.140;6.296;2022-09-09T10:52:40;99844.63;;;19.59;100.00
18813;BME280;9534;51.140;6.296;2022-09-09T10:56:53;99840.19;;;19.58;100.00
18813;BME280;9534;51.140;6.296;2022-09-09T11:01:01;99844.78;;;19.34;100.00
18813;BME280;9534;51.140;6.296;2022-09-09T11:05:13;99828.56;;;19.51;100.00
18813;BME280;9534;51.140;6.296;2022-09-09T11:09:20;99823.94;;;20.08;100.00
18813;BME280;9534;51.140;6.296;2022-09-09T11:13:31;99842.88;;;19.68;100.00
18813;BME280;9534;51.140;6.296;2022-09-09T11:17:41;99844.72;;;19.44;100.00
18813;BME280;9534;51.140;6.296;2022-09-09T11:21:47;99836.09;;;19.46;100.00
18813;BME280;9534;51.140;6.296;2022-09-09T11:25:55;99839.03;;;19.64;100.00
18813;BME280;9534;51.140;6.296;2022-09-09T11:30:06;99837.53;;;19.38;100.00
18813;BME280;9534;51.140;6.296;2022-09-09T11:34:39;99831.66;;;19.83;100.00
18813;BME280;9534;51.140;6.296;2022-09-09T11:38:47;99844.53;;;19.69;100.00
18813;BME280;9534;51.140;6.296;2022-09-09T11:43:03;99851.50;;;19.13;100.00
18813;BME280;9534;51.140;6.296;2022-09-09T11:47:19;99890.25;;;18.40;100.00
18813;BME280;9534;51.140;6.296;2022-09-09T11:51:26;99903.75;;;17.62;100.00
18813;BME280;9534;51.140;6.296;2022-09-09T11:55:32;99910.09;;;17.47;100.00
18813;BME280;9534;51.140;6.296;2022-09-09T11:59:36;99927.81;;;17.51;100.00
18813;BME280;9534;51.140;6.296;2022-09-09T12:03:41;99935.19;;;17.41;100.00
18813;BME280;9534;51.140;6.296;2022-09-09T12:07:51;99969.41;;;16.74;100.00
18813;BME280;9534;51.140;6.296;2022-09-09T12:12:18;99982.94;;;16.39;100.00
18813;BME280;9534;51.140;6.296;2022-09-09T12:16:32;99978.44;;;16.59;100.00
18813;BME280;9534;51.140;6.296;2022-09-09T12:20:37;99998.34;;;16.61;100.00
18813;BME280;9534;51.140;6.296;2022-09-09T12:24:44;100016.34;;;16.69;100.00
18813;BME280;9534;51.140;6.296;2022-09-09T12:28:59;99998.34;;;16.61;100.00
18813;BME280;9534;51.140;6.296;2022-09-09T12:33:10;99997.31;;;16.72;100.00
18813;BME280;9534;51.140;6.296;2022-09-09T12:37:17;99995.13;;;16.74;100.00
18813;BME280;9534;51.140;6.296;2022-09-09T12:41:26;99984.88;;;17.16;100.00
18813;BME280;9534;51.140;6.296;2022-09-09T12:45:32;99973.59;;;18.09;100.00
18813;BME280;9534;51.140;6.296;2022-09-09T12:49:38;99934.94;;;19.32;100.00
18813;BME280;9534;51.140;6.296;2022-09-09T12:53:44;99908.19;;;18.82;100.00
18813;BME280;9534;51.140;6.296;2022-09-09T12:57:49;99908.22;;;18.72;100.00
18813;BME280;9534;51.140;6.296;2022-09-09T13:01:58;99892.53;;;19.21;100.00
18813;BME280;9534;51.140;6.296;2022-09-09T13:06:11;99884.06;;;20.61;100.00
18813;BME280;9534;51.140;6.296;2022-09-09T13:10:20;99862.00;;;20.08;100.00
18813;BME280;9534;51.140;6.296;2022-09-09T13:14:45;99833.69;;;20.91;100.00
18813;BME280;9534;51.140;6.296;2022-09-09T13:18:51;99847.88;;;19.66;100.00
18813;BME280;9534;51.140;6.296;2022-09-09T13:22:55;99869.69;;;18.76;100.00
18813;BME280;9534;51.140;6.296;2022-09-09T13:27:00;99884.41;;;18.66;100.00
18813;BME280;9534;51.140;6.296;2022-09-09T13:31:18;99864.28;;;19.63;100.00
18813;BME280;9534;51.140;6.296;2022-09-09T13:35:24;99845.06;;;20.09;100.00
18813;BME280;9534;51.140;6.296;2022-09-09T13:39:27;99835.06;;;19.32;100.00
18813;BME280;9534;51.140;6.296;2022-09-09T13:43:34;99840.50;;;18.88;100.00
18813;BME280;9534;51.140;6.296;2022-09-09T13:47:37;99897.81;;;17.24;100.00
18813;BME280;9534;51.140;6.296;2022-09-09T13:51:44;99922.44;;;15.75;100.00
18813;BME280;9534;51.140;6.296;2022-09-09T13:55:48;99945.25;;;15.44;100.00
18813;BME280;9534;51.140;6.296;2022-09-09T13:59:54;99941.41;;;15.23;100.00
18813;BME280;9534;51.140;6.296;2022-09-09T14:04:08;99950.75;;;15.01;100.00
18813;BME280;9534;51.140;6.296;2022-09-09T14:08:22;99951.41;;;14.86;100.00
18813;BME280;9534;51.140;6.296;2022-09-09T14:12:27;99959.47;;;14.93;100.00
18813;BME280;9534;51.140;6.296;2022-09-09T14:16:30;99954.97;;;14.87;100.00
18813;BME280;9534;51.140;6.296;2022-09-09T14:20:33;99935.75;;;14.92;100.00
18813;BME280;9534;51.140;6.296;2022-09-09T14:24:38;99934.94;;;14.91;100.00
18813;BME280;9534;51.140;6.296;2022-09-09T14:28:41;99928.22;;;15.04;100.00
18813;BME280;9534;51.140;6.296;2022-09-09T14:33:00;99939.28;;;15.30;100.00
18813;BME280;9534;51.140;6.296;2022-09-09T14:37:04;99936.41;;;15.42;100.00
18813;BME280;9534;51.140;6.296;2022-09-09T14:41:10;99935.72;;;15.78;100.00
18813;BME280;9534;51.140;6.296;2022-09-09T14:45:14;99932.88;;;16.30;100.00
18813;BME280;9534;51.140;6.296;2022-09-09T14:49:17;99914.59;;;16.56;100.00
18813;BME280;9534;51.140;6.296;2022-09-09T14:53:20;99911.31;;;17.20;100.00
18813;BME280;9534;51.140;6.296;2022-09-09T14:57:25;99878.63;;;18.33;100.00
18813;BME280;9534;51.140;6.296;2022-09-09T15:01:29;99841.59;;;18.92;100.00
18813;BME280;9534;51.140;6.296;2022-09-09T15:05:33;99826.78;;;20.37;100.00
18813;BME280;9534;51.140;6.296;2022-09-09T15:09:38;99789.22;;;21.28;100.00
18813;BME280;9534;51.140;6.296;2022-09-09T15:13:43;99783.00;;;20.71;100.00
18813;BME280;9534;51.140;6.296;2022-09-09T15:17:47;99805.81;;;20.21;100.00
18813;BME280;9534;51.140;6.296;2022-09-09T15:21:49;99813.41;;;19.72;100.00
18813;BME280;9534;51.140;6.296;2022-09-09T15:25:54;99805.13;;;20.34;100.00
18813;BME280;9534;51.140;6.296;2022-09-09T15:29:59;99805.97;;;21.05;100.00
18813;BME280;9534;51.140;6.296;2022-09-09T15:34:04;99806.31;;;20.75;100.00
18813;BME280;9534;51.140;6.296;2022-09-09T15:38:08;99810.25;;;19.50;100.00
18813;BME280;9534;51.140;6.296;2022-09-09T15:42:11;99833.78;;;19.04;100.00
18813;BME280;9534;51.140;6.296;2022-09-09T15:46:27;99853.94;;;18.52;100.00
18813;BME280;9534;51.140;6.296;2022-09-09T15:50:32;99864.75;;;18.48;100.00
18813;BME280;9534;51.140;6.296;2022-09-09T15:54:35;99875.56;;;18.50;100.00
18813;BME280;9534;51.140;6.296;2022-09-09T15:58:40;99887.22;;;18.47;100.00
18813;BME280;9534;51.140;6.296;2022-09-09T16:02:47;99892.19;;;18.30;100.00
18813;BME280;9534;51.140;6.296;2022-09-09T16:06:51;99910.44;;;17.71;100.00
18813;BME280;9534;51.140;6.296;2022-09-09T16:10:54;99928.38;;;17.48;100.00
18813;BME280;9534;51.140;6.296;2022-09-09T16:14:58;99927.91;;;17.15;100.00
18813;BME280;9534;51.140;6.296;2022-09-09T16:19:06;99931.19;;;17.78;100.00
18813;BME280;9534;51.140;6.296;2022-09-09T16:23:09;99922.00;;;17.58;100.00
18813;BME280;9534;51.140;6.296;2022-09-09T16:27:12;99929.09;;;17.39;100.00
18813;BME280;9534;51.140;6.296;2022-09-09T16:31:17;99925.19;;;17.30;100.00
18813;BME280;9534;51.140;6.296;2022-09-09T16:35:22;99922.75;;;17.33;100.00
18813;BME280;9534;51.140;6.296;2022-09-09T16:39:25;99933.53;;;17.40;100.00
18813;BME280;9534;51.140;6.296;2022-09-09T16:43:28;99932.25;;;17.62;100.00
18813;BME280;9534;51.140;6.296;2022-09-09T16:47:31;99939.75;;;17.72;100.00
18813;BME280;9534;51.140;6.296;2022-09-09T16:51:37;99935.91;;;17.83;100.00
18813;BME280;9534;51.140;6.296;2022-09-09T16:55:41;99925.13;;;18.06;100.00
18813;BME280;9534;51.140;6.296;2022-09-09T16:59:44;99912.16;;;18.42;100.00
18813;BME280;9534;51.140;6.296;2022-09-09T17:03:52;99894.38;;;18.77;100.00
18813;BME280;9534;51.140;6.296;2022-09-09T17:08:02;99907.41;;;18.62;100.00
18813;BME280;9534;51.140;6.296;2022-09-09T17:12:07;99914.34;;;18.15;100.00
18813;BME280;9534;51.140;6.296;2022-09-09T17:16:13;99922.66;;;17.95;100.00
18813;BME280;9534;51.140;6.296;2022-09-09T17:20:16;99931.19;;;17.83;100.00
18813;BME280;9534;51.140;6.296;2022-09-09T17:24:21;99928.94;;;17.70;100.00
18813;BME280;9534;51.140;6.296;2022-09-09T17:28:24;99940.81;;;17.56;100.00
18813;BME280;9534;51.140;6.296;2022-09-09T17:32:29;99960.63;;;17.38;100.00
18813;BME280;9534;51.140;6.296;2022-09-09T17:36:33;99953.41;;;17.32;100.00
18813;BME280;9534;51.140;6.296;2022-09-09T17:40:39;99968.03;;;17.23;100.00
18813;BME280;9534;51.140;6.296;2022-09-09T17:44:42;99961.94;;;17.21;100.00
18813;BME280;9534;51.140;6.296;2022-09-09T17:48:45;99964.94;;;17.14;100.00
18813;BME280;9534;51.140;6.296;2022-09-09T17:52:48;99968.25;;;17.06;100.00
18813;BME280;9534;51.140;6.296;2022-09-09T17:56:53;99969.31;;;17.00;100.00
18813;BME280;9534;51.140;6.296;2022-09-09T18:01:02;99967.06;;;16.92;100.00
18813;BME280;9534;51.140;6.296;2022-09-09T18:05:06;99975.34;;;16.92;100.00
18813;BME280;9534;51.140;6.296;2022-09-09T18:09:11;99973.13;;;16.89;100.00
18813;BME280;9534;51.140;6.296;2022-09-09T18:13:16;99979.19;;;16.86;100.00
18813;BME280;9534;51.140;6.296;2022-09-09T18:17:19;99989.31;;;16.76;100.00
18813;BME280;9534;51.140;6.296;2022-09-09T18:21:24;99983.56;;;16.82;100.00
18813;BME280;9534;51.140;6.296;2022-09-09T18:25:28;99989.31;;;16.76;100.00
18813;BME280;9534;51.140;6.296;2022-09-09T18:29:32;100002.81;;;16.67;100.00
18813;BME280;9534;51.140;6.296;2022-09-09T18:33:36;100003.34;;;16.64;100.00
18813;BME280;9534;51.140;6.296;2022-09-09T18:37:41;99997.78;;;16.59;100.00
18813;BME280;9534;51.140;6.296;2022-09-09T18:41:46;100007.38;;;16.52;100.00
18813;BME280;9534;51.140;6.296;2022-09-09T18:45:51;100013.72;;;16.52;100.00
18813;BME280;9534;51.140;6.296;2022-09-09T18:49:54;100017.59;;;16.51;100.00
18813;BME280;9534;51.140;6.296;2022-09-09T18:53:59;100027.00;;;16.55;100.00
18813;BME280;9534;51.140;6.296;2022-09-09T18:58:03;100022.63;;;16.59;100.00
18813;BME280;9534;51.140;6.296;2022-09-09T19:02:08;100025.34;;;16.54;100.00
18813;BME280;9534;51.140;6.296;2022-09-09T19:06:15;100039.13;;;16.49;100.00
18813;BME280;9534;51.140;6.296;2022-09-09T19:10:18;100058.72;;;16.48;100.00
18813;BME280;9534;51.140;6.296;2022-09-09T19:14:22;100073.22;;;16.38;100.00
18813;BME280;9534;51.140;6.296;2022-09-09T19:18:26;100083.59;;;16.26;100.00
18813;BME280;9534;51.140;6.296;2022-09-09T19:22:29;100093.47;;;15.96;100.00
18813;BME280;9534;51.140;6.296;2022-09-09T19:26:34;100068.00;;;15.68;100.00
18813;BME280;9534;51.140;6.296;2022-09-09T19:30:41;100058.00;;;15.40;100.00
18813;BME280;9534;51.140;6.296;2022-09-09T19:34:50;100077.63;;;15.27;100.00
18813;BME280;9534;51.140;6.296;2022-09-09T19:38:54;100084.66;;;15.18;100.00
18813;BME280;9534;51.140;6.296;2022-09-09T19:42:58;100090.88;;;15.09;100.00
18813;BME280;9534;51.140;6.296;2022-09-09T19:47:01;100097.56;;;15.13;100.00
18813;BME280;9534;51.140;6.296;2022-09-09T19:51:07;100101.97;;;15.14;100.00
18813;BME280;9534;51.140;6.296;2022-09-09T19:55:10;100101.91;;;15.09;100.00
18813;BME280;9534;51.140;6.296;2022-09-09T19:59:13;100100.22;;;15.08;100.00
18813;BME280;9534;51.140;6.296;2022-09-09T20:03:16;100113.25;;;15.12;100.00
18813;BME280;9534;51.140;6.296;2022-09-09T20:07:22;100123.25;;;15.18;100.00
18813;BME280;9534;51.140;6.296;2022-09-09T20:11:25;100118.97;;;15.27;100.00
18813;BME280;9534;51.140;6.296;2022-09-09T20:15:28;100124.44;;;15.39;100.00
18813;BME280;9534;51.140;6.296;2022-09-09T20:19:32;100121.09;;;15.37;100.00
18813;BME280;9534;51.140;6.296;2022-09-09T20:23:37;100121.94;;;15.37;100.00
18813;BME280;9534;51.140;6.296;2022-09-09T20:27:40;100131.69;;;15.45;100.00
18813;BME280;9534;51.140;6.296;2022-09-09T20:31:43;100130.22;;;15.59;100.00
18813;BME280;9534;51.140;6.296;2022-09-09T20:35:47;100124.69;;;15.75;100.00
18813;BME280;9534;51.140;6.296;2022-09-09T20:39:51;100134.44;;;15.83;100.00
18813;BME280;9534;51.140;6.296;2022-09-09T20:43:57;100114.09;;;15.89;100.00
18813;BME280;9534;51.140;6.296;2022-09-09T20:48:02;100118.25;;;15.91;100.00
18813;BME280;9534;51.140;6.296;2022-09-09T20:52:05;100117.59;;;15.84;100.00
18813;BME280;9534;51.140;6.296;2022-09-09T20:56:13;100110.09;;;15.80;100.00
18813;BME280;9534;51.140;6.296;2022-09-09T21:00:17;100108.78;;;15.82;100.00
18813;BME280;9534;51.140;6.296;2022-09-09T21:04:21;100106.25;;;15.81;100.00
18813;BME280;9534;51.140;6.296;2022-09-09T21:08:26;100106.53;;;15.79;100.00
18813;BME280;9534;51.140;6.296;2022-09-09T21:12:30;100097.75;;;15.82;100.00
18813;BME280;9534;51.140;6.296;2022-09-09T21:16:33;100096.25;;;15.75;100.00
18813;BME280;9534;51.140;6.296;2022-09-09T21:20:36;100086.88;;;15.76;100.00
18813;BME280;9534;51.140;6.296;2022-09-09T21:24:39;100089.06;;;15.74;100.00
18813;BME280;9534;51.140;6.296;2022-09-09T21:28:44;100090.16;;;15.73;100.00
18813;BME280;9534;51.140;6.296;2022-09-09T21:32:47;100094.56;;;15.74;100.00
18813;BME280;9534;51.140;6.296;2022-09-09T21:36:50;100086.81;;;15.71;100.00
18813;BME280;9534;51.140;6.296;2022-09-09T21:40:54;100093.50;;;15.75;100.00
18813;BME280;9534;51.140;6.296;2022-09-09T21:44:58;100102.91;;;15.79;100.00